sensor_id;sensor_type;location;lat;lon;timestamp;P1;P2;P0
46240;PMS5003;31961;52.416;-0.732;2022-10-23T00:01:21;11;11;
46240;PMS5003;31961;52.416;-0.732;2022-10-23T00:03:49;16;12;
46240;PMS5003;31961;52.416;-0.732;2022-10-23T00:06:18;12;10;
46240;PMS5003;31961;52.416;-0.732;2022-10-23T00:08:46;13;13;
46240;PMS5003;31961;52.416;-0.732;2022-10-23T00:11:14;9;9;
46240;PMS5003;31961;52.416;-0.732;2022-10-23T00:13:43;10;10;
46240;PMS5003;31961;52.416;-0.732;2022-10-23T00:16:10;12;12;
46240;PMS5003;31961;52.416;-0.732;2022-10-23T00:18:38;15;14;
46240;PMS5003;31961;52.416;-0.732;2022-10-23T00:21:07;11;10;
46240;PMS5003;31961;52.416;-0.732;2022-10-23T00:23:36;10;10;
46240;PMS5003;31961;52.416;-0.732;2022-10-23T00:26:03;14;11;
46240;PMS5003;31961;52.416;-0.732;2022-10-23T00:28:31;14;12;
46240;PMS5003;31961;52.416;-0.732;2022-10-23T00:31:00;14;10;
46240;PMS5003;31961;52.416;-0.732;2022-10-23T00:33:27;16;13;
46240;PMS5003;31961;52.416;-0.732;2022-10-23T00:35:54;12;12;
46240;PMS5003;31961;52.416;-0.732;2022-10-23T00:38:21;14;13;
46240;PMS5003;31961;52.416;-0.732;2022-10-23T00:40:49;17;13;
46240;PMS5003;31961;52.416;-0.732;2022-10-23T00:43:17;10;10;
46240;PMS5003;31961;52.416;-0.732;2022-10-23T00:45:46;15;12;
46240;PMS5003;31961;52.416;-0.732;2022-10-23T00:48:13;12;12;
46240;PMS5003;31961;52.416;-0.732;2022-10-23T00:50:41;13;13;
46240;PMS5003;31961;52.416;-0.732;2022-10-23T00:53:09;14;13;
46240;PMS5003;31961;52.416;-0.732;2022-10-23T00:55:38;18;13;
46240;PMS5003;31961;52.416;-0.732;2022-10-23T00:58:08;12;11;
46240;PMS5003;31961;52.416;-0.732;2022-10-23T01:00:44;16;13;
46240;PMS5003;31961;52.416;-0.732;2022-10-23T01:03:13;11;9;
46240;PMS5003;31961;52.416;-0.732;2022-10-23T01:05:45;14;10;
46240;PMS5003;31961;52.416;-0.732;2022-10-23T01:08:19;15;12;
46240;PMS5003;31961;52.416;-0.732;2022-10-23T01:10:56;12;11;
46240;PMS5003;31961;52.416;-0.732;2022-10-23T01:13:32;15;12;
46240;PMS5003;31961;52.416;-0.732;2022-10-23T01:16:09;9;9;
46240;PMS5003;31961;52.416;-0.732;2022-10-23T01:18:43;15;15;
46240;PMS5003;31961;52.416;-0.732;2022-10-23T01:21:16;10;10;
46240;PMS5003;31961;52.416;-0.732;2022-10-23T01:23:55;14;12;
46240;PMS5003;31961;52.416;-0.732;2022-10-23T01:26:34;11;11;
46240;PMS5003;31961;52.416;-0.732;2022-10-23T01:29:14;14;13;
46240;PMS5003;31961;52.416;-0.732;2022-10-23T01:31:47;18;14;
46240;PMS5003;31961;52.416;-0.732;2022-10-23T01:34:19;11;8;
46240;PMS5003;31961;52.416;-0.732;2022-10-23T01:36:54;12;10;
46240;PMS5003;31961;52.416;-0.732;2022-10-23T01:39:26;11;11;
46240;PMS5003;31961;52.416;-0.732;2022-10-23T01:41:58;13;11;
46240;PMS5003;31961;52.416;-0.732;2022-10-23T01:44:32;12;11;
46240;PMS5003;31961;52.416;-0.732;2022-10-23T01:47:03;12;11;
46240;PMS5003;31961;52.416;-0.732;2022-10-23T01:49:34;11;9;
46240;PMS5003;31961;52.416;-0.732;2022-10-23T01:52:05;8;8;
46240;PMS5003;31961;52.416;-0.732;2022-10-23T01:54:36;13;11;
46240;PMS5003;31961;52.416;-0.732;2022-10-23T01:57:06;9;8;
46240;PMS5003;31961;52.416;-0.732;2022-10-23T01:59:37;11;10;
46240;PMS5003;31961;52.416;-0.732;2022-10-23T02:02:08;11;10;
46240;PMS5003;31961;52.416;-0.732;2022-10-23T02:04:39;12;12;
46240;PMS5003;31961;52.416;-0.732;2022-10-23T02:07:10;16;12;
46240;PMS5003;31961;52.416;-0.732;2022-10-23T02:09:38;12;12;
46240;PMS5003;31961;52.416;-0.732;2022-10-23T02:12:06;14;12;
46240;PMS5003;31961;52.416;-0.732;2022-10-23T02:14:38;11;10;
46240;PMS5003;31961;52.416;-0.732;2022-10-23T02:17:12;10;10;
46240;PMS5003;31961;52.416;-0.732;2022-10-23T02:19:48;12;12;
46240;PMS5003;31961;52.416;-0.732;2022-10-23T02:22:21;12;12;
46240;PMS5003;31961;52.416;-0.732;2022-10-23T02:24:51;12;12;
46240;PMS5003;31961;52.416;-0.732;2022-10-23T02:27:23;13;11;
46240;PMS5003;31961;52.416;-0.732;2022-10-23T02:29:58;12;9;
46240;PMS5003;31961;52.416;-0.732;2022-10-23T02:32:29;11;10;
46240;PMS5003;31961;52.416;-0.732;2022-10-23T02:34:58;13;10;
46240;PMS5003;31961;52.416;-0.732;2022-10-23T02:37:25;11;11;
46240;PMS5003;31961;52.416;-0.732;2022-10-23T02:39:52;12;12;
46240;PMS5003;31961;52.416;-0.732;2022-10-23T02:42:21;14;14;
46240;PMS5003;31961;52.416;-0.732;2022-10-23T02:44:54;15;13;
46240;PMS5003;31961;52.416;-0.732;2022-10-23T02:47:31;12;8;
46240;PMS5003;31961;52.416;-0.732;2022-10-23T02:50:08;13;12;
46240;PMS5003;31961;52.416;-0.732;2022-10-23T02:52:41;11;8;
46240;PMS5003;31961;52.416;-0.732;2022-10-23T02:55:21;11;11;
46240;PMS5003;31961;52.416;-0.732;2022-10-23T02:57:59;12;10;
46240;PMS5003;31961;52.416;-0.732;2022-10-23T03:00:33;10;10;
46240;PMS5003;31961;52.416;-0.732;2022-10-23T03:03:05;10;10;
46240;PMS5003;31961;52.416;-0.732;2022-10-23T03:05:39;13;13;
46240;PMS5003;31961;52.416;-0.732;2022-10-23T03:08:07;13;13;
46240;PMS5003;31961;52.416;-0.732;2022-10-23T03:10:36;10;10;
46240;PMS5003;31961;52.416;-0.732;2022-10-23T03:13:04;15;13;
46240;PMS5003;31961;52.416;-0.732;2022-10-23T03:15:31;14;12;
46240;PMS5003;31961;52.416;-0.732;2022-10-23T03:17:59;14;13;
46240;PMS5003;31961;52.416;-0.732;2022-10-23T03:20:26;14;10;
46240;PMS5003;31961;52.416;-0.732;2022-10-23T03:22:53;13;10;
46240;PMS5003;31961;52.416;-0.732;2022-10-23T03:25:20;12;11;
46240;PMS5003;31961;52.416;-0.732;2022-10-23T03:27:48;15;15;
46240;PMS5003;31961;52.416;-0.732;2022-10-23T03:30:15;14;13;
46240;PMS5003;31961;52.416;-0.732;2022-10-23T03:32:43;15;13;
46240;PMS5003;31961;52.416;-0.732;2022-10-23T03:35:10;16;14;
46240;PMS5003;31961;52.416;-0.732;2022-10-23T03:37:38;15;12;
46240;PMS5003;31961;52.416;-0.732;2022-10-23T03:40:06;14;13;
46240;PMS5003;31961;52.416;-0.732;2022-10-23T03:42:34;14;14;
46240;PMS5003;31961;52.416;-0.732;2022-10-23T03:45:00;12;11;
46240;PMS5003;31961;52.416;-0.732;2022-10-23T03:47:28;14;13;
46240;PMS5003;31961;52.416;-0.732;2022-10-23T03:49:55;15;12;
46240;PMS5003;31961;52.416;-0.732;2022-10-23T03:52:22;13;11;
46240;PMS5003;31961;52.416;-0.732;2022-10-23T03:54:49;15;12;
46240;PMS5003;31961;52.416;-0.732;2022-10-23T03:57:17;13;12;
46240;PMS5003;31961;52.416;-0.732;2022-10-23T03:59:44;16;14;
46240;PMS5003;31961;52.416;-0.732;2022-10-23T04:02:11;13;13;
46240;PMS5003;31961;52.416;-0.732;2022-10-23T04:04:39;11;11;
46240;PMS5003;31961;52.416;-0.732;2022-10-23T04:07:06;17;14;
46240;PMS5003;31961;52.416;-0.732;2022-10-23T04:09:33;15;13;
46240;PMS5003;31961;52.416;-0.732;2022-10-23T04:12:01;17;14;
46240;PMS5003;31961;52.416;-0.732;2022-10-23T04:14:28;14;11;
46240;PMS5003;31961;52.416;-0.732;2022-10-23T04:16:55;12;12;
46240;PMS5003;31961;52.416;-0.732;2022-10-23T04:19:22;13;10;
46240;PMS5003;31961;52.416;-0.732;2022-10-23T04:21:50;12;12;
46240;PMS5003;31961;52.416;-0.732;2022-10-23T04:24:17;13;10;
46240;PMS5003;31961;52.416;-0.732;2022-10-23T04:26:45;9;9;
46240;PMS5003;31961;52.416;-0.732;2022-10-23T04:29:12;9;8;
46240;PMS5003;31961;52.416;-0.732;2022-10-23T04:31:39;11;9;
46240;PMS5003;31961;52.416;-0.732;2022-10-23T04:34:07;12;8;
46240;PMS5003;31961;52.416;-0.732;2022-10-23T04:36:34;9;9;
46240;PMS5003;31961;52.416;-0.732;2022-10-23T04:39:01;12;7;
46240;PMS5003;31961;52.416;-0.732;2022-10-23T04:41:29;12;10;
46240;PMS5003;31961;52.416;-0.732;2022-10-23T04:43:56;10;10;
46240;PMS5003;31961;52.416;-0.732;2022-10-23T04:46:24;10;9;
46240;PMS5003;31961;52.416;-0.732;2022-10-23T04:48:51;10;9;
46240;PMS5003;31961;52.416;-0.732;2022-10-23T04:51:19;13;9;
46240;PMS5003;31961;52.416;-0.732;2022-10-23T04:53:47;12;9;
46240;PMS5003;31961;52.416;-0.732;2022-10-23T04:56:14;8;8;
46240;PMS5003;31961;52.416;-0.732;2022-10-23T04:58:43;11;9;
46240;PMS5003;31961;52.416;-0.732;2022-10-23T05:01:11;11;8;
46240;PMS5003;31961;52.416;-0.732;2022-10-23T05:03:38;8;8;
46240;PMS5003;31961;52.416;-0.732;2022-10-23T05:06:05;8;8;
46240;PMS5003;31961;52.416;-0.732;2022-10-23T05:08:32;11;9;
46240;PMS5003;31961;52.416;-0.732;2022-10-23T05:10:59;8;7;
46240;PMS5003;31961;52.416;-0.732;2022-10-23T05:13:27;7;5;
46240;PMS5003;31961;52.416;-0.732;2022-10-23T05:15:56;12;11;
46240;PMS5003;31961;52.416;-0.732;2022-10-23T05:18:25;10;7;
46240;PMS5003;31961;52.416;-0.732;2022-10-23T05:20:55;10;9;
46240;PMS5003;31961;52.416;-0.732;2022-10-23T05:23:26;13;11;
46240;PMS5003;31961;52.416;-0.732;2022-10-23T05:25:55;12;8;
46240;PMS5003;31961;52.416;-0.732;2022-10-23T05:28:23;13;10;
46240;PMS5003;31961;52.416;-0.732;2022-10-23T05:30:50;10;8;
46240;PMS5003;31961;52.416;-0.732;2022-10-23T05:33:18;11;11;
46240;PMS5003;31961;52.416;-0.732;2022-10-23T05:35:46;9;9;
46240;PMS5003;31961;52.416;-0.732;2022-10-23T05:38:13;7;7;
46240;PMS5003;31961;52.416;-0.732;2022-10-23T05:40:41;7;7;
46240;PMS5003;31961;52.416;-0.732;2022-10-23T05:43:09;9;9;
46240;PMS5003;31961;52.416;-0.732;2022-10-23T05:45:36;11;10;
46240;PMS5003;31961;52.416;-0.732;2022-10-23T05:48:04;10;10;
46240;PMS5003;31961;52.416;-0.732;2022-10-23T05:50:34;11;11;
46240;PMS5003;31961;52.416;-0.732;2022-10-23T05:53:02;14;11;
46240;PMS5003;31961;52.416;-0.732;2022-10-23T05:55:29;9;8;
46240;PMS5003;31961;52.416;-0.732;2022-10-23T05:57:57;12;10;
46240;PMS5003;31961;52.416;-0.732;2022-10-23T06:00:24;12;10;
46240;PMS5003;31961;52.416;-0.732;2022-10-23T06:02:52;10;8;
46240;PMS5003;31961;52.416;-0.732;2022-10-23T06:05:19;8;8;
46240;PMS5003;31961;52.416;-0.732;2022-10-23T06:07:47;9;8;
46240;PMS5003;31961;52.416;-0.732;2022-10-23T06:10:15;10;9;
46240;PMS5003;31961;52.416;-0.732;2022-10-23T06:12:42;10;10;
46240;PMS5003;31961;52.416;-0.732;2022-10-23T06:15:10;10;10;
46240;PMS5003;31961;52.416;-0.732;2022-10-23T06:17:37;10;10;
46240;PMS5003;31961;52.416;-0.732;2022-10-23T06:20:05;7;7;
46240;PMS5003;31961;52.416;-0.732;2022-10-23T06:22:33;9;9;
46240;PMS5003;31961;52.416;-0.732;2022-10-23T06:25:01;12;10;
46240;PMS5003;31961;52.416;-0.732;2022-10-23T06:27:29;11;11;
46240;PMS5003;31961;52.416;-0.732;2022-10-23T06:29:55;14;11;
46240;PMS5003;31961;52.416;-0.732;2022-10-23T06:32:22;9;8;
46240;PMS5003;31961;52.416;-0.732;2022-10-23T06:34:49;10;9;
46240;PMS5003;31961;52.416;-0.732;2022-10-23T06:37:17;10;10;
46240;PMS5003;31961;52.416;-0.732;2022-10-23T06:39:45;10;9;
46240;PMS5003;31961;52.416;-0.732;2022-10-23T06:42:12;9;8;
46240;PMS5003;31961;52.416;-0.732;2022-10-23T06:44:40;12;9;
46240;PMS5003;31961;52.416;-0.732;2022-10-23T06:47:07;10;8;
46240;PMS5003;31961;52.416;-0.732;2022-10-23T06:49:35;11;10;
46240;PMS5003;31961;52.416;-0.732;2022-10-23T06:52:02;9;8;
46240;PMS5003;31961;52.416;-0.732;2022-10-23T06:54:29;12;12;
46240;PMS5003;31961;52.416;-0.732;2022-10-23T06:56:57;5;5;
46240;PMS5003;31961;52.416;-0.732;2022-10-23T06:59:24;9;9;
46240;PMS5003;31961;52.416;-0.732;2022-10-23T07:01:52;7;7;
46240;PMS5003;31961;52.416;-0.732;2022-10-23T07:04:19;10;8;
46240;PMS5003;31961;52.416;-0.732;2022-10-23T07:06:47;6;6;
46240;PMS5003;31961;52.416;-0.732;2022-10-23T07:09:14;4;4;
46240;PMS5003;31961;52.416;-0.732;2022-10-23T07:11:42;5;5;
46240;PMS5003;31961;52.416;-0.732;2022-10-23T07:14:09;4;4;
46240;PMS5003;31961;52.416;-0.732;2022-10-23T07:16:37;4;3;
46240;PMS5003;31961;52.416;-0.732;2022-10-23T07:19:04;2;2;
46240;PMS5003;31961;52.416;-0.732;2022-10-23T07:21:32;4;4;
46240;PMS5003;31961;52.416;-0.732;2022-10-23T07:24:00;5;5;
46240;PMS5003;31961;52.416;-0.732;2022-10-23T07:26:29;2;2;
46240;PMS5003;31961;52.416;-0.732;2022-10-23T07:28:56;3;3;
46240;PMS5003;31961;52.416;-0.732;2022-10-23T07:31:24;3;3;
46240;PMS5003;31961;52.416;-0.732;2022-10-23T07:33:52;4;3;
46240;PMS5003;31961;52.416;-0.732;2022-10-23T07:36:20;3;3;
46240;PMS5003;31961;52.416;-0.732;2022-10-23T07:38:47;4;4;
46240;PMS5003;31961;52.416;-0.732;2022-10-23T07:41:15;3;3;
46240;PMS5003;31961;52.416;-0.732;2022-10-23T07:43:43;2;2;
46240;PMS5003;31961;52.416;-0.732;2022-10-23T07:46:11;3;3;
46240;PMS5003;31961;52.416;-0.732;2022-10-23T07:48:38;4;3;
46240;PMS5003;31961;52.416;-0.732;2022-10-23T07:51:06;1;1;
46240;PMS5003;31961;52.416;-0.732;2022-10-23T07:53:36;3;3;
46240;PMS5003;31961;52.416;-0.732;2022-10-23T07:56:09;4;3;
46240;PMS5003;31961;52.416;-0.732;2022-10-23T07:58:39;2;2;
46240;PMS5003;31961;52.416;-0.732;2022-10-23T08:01:11;2;2;
46240;PMS5003;31961;52.416;-0.732;2022-10-23T08:03:42;3;3;
46240;PMS5003;31961;52.416;-0.732;2022-10-23T08:06:10;3;3;
46240;PMS5003;31961;52.416;-0.732;2022-10-23T08:08:37;2;1;
46240;PMS5003;31961;52.416;-0.732;2022-10-23T08:11:05;1;1;
46240;PMS5003;31961;52.416;-0.732;2022-10-23T08:13:31;2;1;
46240;PMS5003;31961;52.416;-0.732;2022-10-23T08:15:59;4;3;
46240;PMS5003;31961;52.416;-0.732;2022-10-23T08:18:27;2;2;
46240;PMS5003;31961;52.416;-0.732;2022-10-23T08:57:13;4;4;
46240;PMS5003;31961;52.416;-0.732;2022-10-23T08:59:44;3;3;
46240;PMS5003;31961;52.416;-0.732;2022-10-23T09:02:15;7;5;
46240;PMS5003;31961;52.416;-0.732;2022-10-23T09:04:47;6;6;
46240;PMS5003;31961;52.416;-0.732;2022-10-23T09:07:19;8;8;
46240;PMS5003;31961;52.416;-0.732;2022-10-23T09:09:54;12;11;
46240;PMS5003;31961;52.416;-0.732;2022-10-23T09:12:32;8;8;
46240;PMS5003;31961;52.416;-0.732;2022-10-23T09:15:02;8;8;
46240;PMS5003;31961;52.416;-0.732;2022-10-23T09:17:39;9;7;
46240;PMS5003;31961;52.416;-0.732;2022-10-23T09:20:18;6;6;
46240;PMS5003;31961;52.416;-0.732;2022-10-23T09:22:47;8;8;
46240;PMS5003;31961;52.416;-0.732;2022-10-23T09:25:16;9;8;
46240;PMS5003;31961;52.416;-0.732;2022-10-23T09:27:46;7;7;
46240;PMS5003;31961;52.416;-0.732;2022-10-23T09:30:23;7;7;
46240;PMS5003;31961;52.416;-0.732;2022-10-23T09:32:54;8;8;
46240;PMS5003;31961;52.416;-0.732;2022-10-23T09:35:22;9;9;
46240;PMS5003;31961;52.416;-0.732;2022-10-23T09:37:52;8;8;
46240;PMS5003;31961;52.416;-0.732;2022-10-23T09:40:23;7;7;
46240;PMS5003;31961;52.416;-0.732;2022-10-23T09:42:56;8;6;
46240;PMS5003;31961;52.416;-0.732;2022-10-23T09:45:27;6;6;
46240;PMS5003;31961;52.416;-0.732;2022-10-23T09:48:04;7;7;
46240;PMS5003;31961;52.416;-0.732;2022-10-23T09:50:35;11;8;
46240;PMS5003;31961;52.416;-0.732;2022-10-23T09:53:03;8;8;
46240;PMS5003;31961;52.416;-0.732;2022-10-23T09:55:31;8;5;
46240;PMS5003;31961;52.416;-0.732;2022-10-23T09:57:58;7;7;
46240;PMS5003;31961;52.416;-0.732;2022-10-23T10:00:26;8;8;
46240;PMS5003;31961;52.416;-0.732;2022-10-23T10:02:54;9;6;
46240;PMS5003;31961;52.416;-0.732;2022-10-23T10:05:25;9;8;
46240;PMS5003;31961;52.416;-0.732;2022-10-23T10:07:55;7;7;
46240;PMS5003;31961;52.416;-0.732;2022-10-23T10:10:26;8;8;
46240;PMS5003;31961;52.416;-0.732;2022-10-23T10:13:00;9;8;
46240;PMS5003;31961;52.416;-0.732;2022-10-23T10:15:36;7;6;
46240;PMS5003;31961;52.416;-0.732;2022-10-23T10:18:14;10;9;
46240;PMS5003;31961;52.416;-0.732;2022-10-23T10:20:53;10;9;
46240;PMS5003;31961;52.416;-0.732;2022-10-23T10:23:33;9;8;
46240;PMS5003;31961;52.416;-0.732;2022-10-23T10:26:14;11;9;
46240;PMS5003;31961;52.416;-0.732;2022-10-23T10:28:57;9;9;
46240;PMS5003;31961;52.416;-0.732;2022-10-23T10:31:35;7;6;
46240;PMS5003;31961;52.416;-0.732;2022-10-23T10:34:11;11;10;
46240;PMS5003;31961;52.416;-0.732;2022-10-23T10:36:46;8;8;
46240;PMS5003;31961;52.416;-0.732;2022-10-23T10:39:20;9;7;
46240;PMS5003;31961;52.416;-0.732;2022-10-23T10:42:02;7;6;
46240;PMS5003;31961;52.416;-0.732;2022-10-23T10:44:52;8;8;
46240;PMS5003;31961;52.416;-0.732;2022-10-23T10:47:31;7;7;
46240;PMS5003;31961;52.416;-0.732;2022-10-23T10:50:07;9;8;
46240;PMS5003;31961;52.416;-0.732;2022-10-23T10:52:45;6;6;
46240;PMS5003;31961;52.416;-0.732;2022-10-23T10:55:21;9;8;
46240;PMS5003;31961;52.416;-0.732;2022-10-23T10:57:55;7;7;
46240;PMS5003;31961;52.416;-0.732;2022-10-23T11:00:27;7;7;
46240;PMS5003;31961;52.416;-0.732;2022-10-23T11:02:59;6;5;
46240;PMS5003;31961;52.416;-0.732;2022-10-23T11:05:36;5;5;
46240;PMS5003;31961;52.416;-0.732;2022-10-23T11:08:08;6;5;
46240;PMS5003;31961;52.416;-0.732;2022-10-23T11:10:40;6;6;
46240;PMS5003;31961;52.416;-0.732;2022-10-23T11:13:15;7;7;
46240;PMS5003;31961;52.416;-0.732;2022-10-23T11:15:51;7;7;
46240;PMS5003;31961;52.416;-0.732;2022-10-23T11:18:23;6;6;
46240;PMS5003;31961;52.416;-0.732;2022-10-23T11:20:56;4;4;
46240;PMS5003;31961;52.416;-0.732;2022-10-23T11:23:35;4;4;
46240;PMS5003;31961;52.416;-0.732;2022-10-23T11:26:18;4;4;
46240;PMS5003;31961;52.416;-0.732;2022-10-23T11:29:01;4;4;
46240;PMS5003;31961;52.416;-0.732;2022-10-23T11:31:44;3;3;
46240;PMS5003;31961;52.416;-0.732;2022-10-23T11:34:29;4;3;
46240;PMS5003;31961;52.416;-0.732;2022-10-23T11:37:09;4;2;
46240;PMS5003;31961;52.416;-0.732;2022-10-23T11:39:54;4;3;
46240;PMS5003;31961;52.416;-0.732;2022-10-23T11:42:29;4;4;
46240;PMS5003;31961;52.416;-0.732;2022-10-23T11:44:58;5;4;
46240;PMS5003;31961;52.416;-0.732;2022-10-23T11:47:27;5;4;
46240;PMS5003;31961;52.416;-0.732;2022-10-23T11:50:13;4;2;
46240;PMS5003;31961;52.416;-0.732;2022-10-23T11:53:05;4;4;
46240;PMS5003;31961;52.416;-0.732;2022-10-23T11:55:58;4;4;
46240;PMS5003;31961;52.416;-0.732;2022-10-23T11:58:38;3;3;
46240;PMS5003;31961;52.416;-0.732;2022-10-23T12:01:23;2;2;
46240;PMS5003;31961;52.416;-0.732;2022-10-23T12:03:56;4;4;
46240;PMS5003;31961;52.416;-0.732;2022-10-23T12:06:28;4;4;
46240;PMS5003;31961;52.416;-0.732;2022-10-23T12:09:04;3;2;
46240;PMS5003;31961;52.416;-0.732;2022-10-23T12:11:40;5;4;
46240;PMS5003;31961;52.416;-0.732;2022-10-23T12:14:26;2;2;
46240;PMS5003;31961;52.416;-0.732;2022-10-23T12:16:55;5;3;
46240;PMS5003;31961;52.416;-0.732;2022-10-23T12:19:23;3;3;
46240;PMS5003;31961;52.416;-0.732;2022-10-23T12:21:53;4;4;
46240;PMS5003;31961;52.416;-0.732;2022-10-23T12:24:43;3;3;
46240;PMS5003;31961;52.416;-0.732;2022-10-23T12:27:26;6;5;
46240;PMS5003;31961;52.416;-0.732;2022-10-23T12:30:02;5;5;
46240;PMS5003;31961;52.416;-0.732;2022-10-23T12:32:44;5;5;
46240;PMS5003;31961;52.416;-0.732;2022-10-23T12:35:23;4;4;
46240;PMS5003;31961;52.416;-0.732;2022-10-23T12:38:03;6;5;
46240;PMS5003;31961;52.416;-0.732;2022-10-23T12:40:39;4;3;
46240;PMS5003;31961;52.416;-0.732;2022-10-23T12:43:20;10;7;
46240;PMS5003;31961;52.416;-0.732;2022-10-23T12:45:51;4;4;
46240;PMS5003;31961;52.416;-0.732;2022-10-23T12:48:21;4;4;
46240;PMS5003;31961;52.416;-0.732;2022-10-23T12:50:51;5;5;
46240;PMS5003;31961;52.416;-0.732;2022-10-23T12:53:20;8;6;
46240;PMS5003;31961;52.416;-0.732;2022-10-23T12:55:50;8;8;
46240;PMS5003;31961;52.416;-0.732;2022-10-23T12:58:22;9;6;
46240;PMS5003;31961;52.416;-0.732;2022-10-23T13:00:52;7;7;
46240;PMS5003;31961;52.416;-0.732;2022-10-23T13:03:23;8;8;
46240;PMS5003;31961;52.416;-0.732;2022-10-23T13:05:52;6;6;
46240;PMS5003;31961;52.416;-0.732;2022-10-23T13:08:21;6;6;
46240;PMS5003;31961;52.416;-0.732;2022-10-23T13:10:50;5;5;
46240;PMS5003;31961;52.416;-0.732;2022-10-23T13:13:19;6;6;
46240;PMS5003;31961;52.416;-0.732;2022-10-23T13:15:49;5;5;
46240;PMS5003;31961;52.416;-0.732;2022-10-23T13:18:16;4;4;
46240;PMS5003;31961;52.416;-0.732;2022-10-23T13:20:54;6;5;
46240;PMS5003;31961;52.416;-0.732;2022-10-23T13:23:24;5;5;
46240;PMS5003;31961;52.416;-0.732;2022-10-23T13:25:55;6;6;
46240;PMS5003;31961;52.416;-0.732;2022-10-23T13:28:25;3;3;
46240;PMS5003;31961;52.416;-0.732;2022-10-23T13:31:01;5;5;
46240;PMS5003;31961;52.416;-0.732;2022-10-23T13:33:31;6;6;
46240;PMS5003;31961;52.416;-0.732;2022-10-23T13:36:01;6;6;
46240;PMS5003;31961;52.416;-0.732;2022-10-23T13:38:31;6;6;
46240;PMS5003;31961;52.416;-0.732;2022-10-23T13:41:00;6;6;
46240;PMS5003;31961;52.416;-0.732;2022-10-23T13:43:30;6;6;
46240;PMS5003;31961;52.416;-0.732;2022-10-23T13:45:59;4;4;
46240;PMS5003;31961;52.416;-0.732;2022-10-23T13:48:26;8;8;
46240;PMS5003;31961;52.416;-0.732;2022-10-23T13:50:56;7;7;
46240;PMS5003;31961;52.416;-0.732;2022-10-23T13:53:26;7;7;
46240;PMS5003;31961;52.416;-0.732;2022-10-23T13:55:54;7;7;
46240;PMS5003;31961;52.416;-0.732;2022-10-23T13:58:21;7;7;
46240;PMS5003;31961;52.416;-0.732;2022-10-23T14:00:49;5;5;
46240;PMS5003;31961;52.416;-0.732;2022-10-23T14:03:17;5;5;
46240;PMS5003;31961;52.416;-0.732;2022-10-23T14:05:44;8;7;
46240;PMS5003;31961;52.416;-0.732;2022-10-23T14:08:12;5;5;
46240;PMS5003;31961;52.416;-0.732;2022-10-23T14:10:39;5;5;
46240;PMS5003;31961;52.416;-0.732;2022-10-23T14:13:07;4;3;
46240;PMS5003;31961;52.416;-0.732;2022-10-23T14:15:34;3;3;
46240;PMS5003;31961;52.416;-0.732;2022-10-23T14:18:02;2;2;
46240;PMS5003;31961;52.416;-0.732;2022-10-23T14:20:29;4;4;
46240;PMS5003;31961;52.416;-0.732;2022-10-23T14:22:57;5;5;
46240;PMS5003;31961;52.416;-0.732;2022-10-23T14:25:24;4;4;
46240;PMS5003;31961;52.416;-0.732;2022-10-23T14:27:52;3;3;
46240;PMS5003;31961;52.416;-0.732;2022-10-23T14:30:19;4;4;
46240;PMS5003;31961;52.416;-0.732;2022-10-23T14:32:47;2;2;
46240;PMS5003;31961;52.416;-0.732;2022-10-23T14:35:15;5;3;
46240;PMS5003;31961;52.416;-0.732;2022-10-23T14:37:42;3;3;
46240;PMS5003;31961;52.416;-0.732;2022-10-23T14:40:10;2;2;
46240;PMS5003;31961;52.416;-0.732;2022-10-23T14:42:37;3;3;
46240;PMS5003;31961;52.416;-0.732;2022-10-23T14:45:05;5;5;
46240;PMS5003;31961;52.416;-0.732;2022-10-23T14:47:33;5;3;
46240;PMS5003;31961;52.416;-0.732;2022-10-23T14:50:00;3;3;
46240;PMS5003;31961;52.416;-0.732;2022-10-23T14:52:28;4;3;
46240;PMS5003;31961;52.416;-0.732;2022-10-23T14:54:55;2;2;
46240;PMS5003;31961;52.416;-0.732;2022-10-23T14:57:23;6;4;
46240;PMS5003;31961;52.416;-0.732;2022-10-23T14:59:51;4;3;
46240;PMS5003;31961;52.416;-0.732;2022-10-23T15:02:18;4;4;
46240;PMS5003;31961;52.416;-0.732;2022-10-23T15:04:46;6;5;
46240;PMS5003;31961;52.416;-0.732;2022-10-23T15:07:13;5;4;
46240;PMS5003;31961;52.416;-0.732;2022-10-23T15:09:41;3;3;
46240;PMS5003;31961;52.416;-0.732;2022-10-23T15:12:08;5;4;
46240;PMS5003;31961;52.416;-0.732;2022-10-23T15:14:35;5;4;
46240;PMS5003;31961;52.416;-0.732;2022-10-23T15:17:02;4;4;
46240;PMS5003;31961;52.416;-0.732;2022-10-23T15:19:30;5;5;
46240;PMS5003;31961;52.416;-0.732;2022-10-23T15:21:57;6;4;
46240;PMS5003;31961;52.416;-0.732;2022-10-23T15:24:25;4;4;
46240;PMS5003;31961;52.416;-0.732;2022-10-23T15:26:52;4;4;
46240;PMS5003;31961;52.416;-0.732;2022-10-23T15:29:20;3;3;
46240;PMS5003;31961;52.416;-0.732;2022-10-23T15:31:49;4;4;
46240;PMS5003;31961;52.416;-0.732;2022-10-23T15:34:20;6;6;
46240;PMS5003;31961;52.416;-0.732;2022-10-23T15:36:49;3;3;
46240;PMS5003;31961;52.416;-0.732;2022-10-23T15:39:18;4;4;
46240;PMS5003;31961;52.416;-0.732;2022-10-23T15:41:46;9;7;
46240;PMS5003;31961;52.416;-0.732;2022-10-23T15:44:16;6;5;
46240;PMS5003;31961;52.416;-0.732;2022-10-23T15:46:45;6;6;
46240;PMS5003;31961;52.416;-0.732;2022-10-23T15:49:12;6;6;
46240;PMS5003;31961;52.416;-0.732;2022-10-23T15:51:40;5;5;
46240;PMS5003;31961;52.416;-0.732;2022-10-23T15:54:10;5;5;
46240;PMS5003;31961;52.416;-0.732;2022-10-23T15:56:39;11;8;
46240;PMS5003;31961;52.416;-0.732;2022-10-23T15:59:07;11;10;
46240;PMS5003;31961;52.416;-0.732;2022-10-23T16:01:34;10;10;
46240;PMS5003;31961;52.416;-0.732;2022-10-23T16:04:02;12;12;
46240;PMS5003;31961;52.416;-0.732;2022-10-23T16:06:30;13;11;
46240;PMS5003;31961;52.416;-0.732;2022-10-23T16:08:58;9;9;
46240;PMS5003;31961;52.416;-0.732;2022-10-23T16:11:26;9;8;
46240;PMS5003;31961;52.416;-0.732;2022-10-23T16:13:55;9;7;
46240;PMS5003;31961;52.416;-0.732;2022-10-23T16:16:23;7;7;
46240;PMS5003;31961;52.416;-0.732;2022-10-23T16:18:50;8;8;
46240;PMS5003;31961;52.416;-0.732;2022-10-23T16:21:19;10;8;
46240;PMS5003;31961;52.416;-0.732;2022-10-23T16:23:47;9;9;
46240;PMS5003;31961;52.416;-0.732;2022-10-23T16:26:15;9;9;
46240;PMS5003;31961;52.416;-0.732;2022-10-23T16:28:43;11;11;
46240;PMS5003;31961;52.416;-0.732;2022-10-23T16:31:11;9;9;
46240;PMS5003;31961;52.416;-0.732;2022-10-23T16:33:39;11;7;
46240;PMS5003;31961;52.416;-0.732;2022-10-23T16:36:08;8;6;
46240;PMS5003;31961;52.416;-0.732;2022-10-23T16:38:36;8;8;
46240;PMS5003;31961;52.416;-0.732;2022-10-23T16:41:03;9;9;
46240;PMS5003;31961;52.416;-0.732;2022-10-23T16:43:31;10;7;
46240;PMS5003;31961;52.416;-0.732;2022-10-23T16:45:59;7;6;
46240;PMS5003;31961;52.416;-0.732;2022-10-23T16:48:28;8;8;
46240;PMS5003;31961;52.416;-0.732;2022-10-23T16:50:55;9;8;
46240;PMS5003;31961;52.416;-0.732;2022-10-23T16:53:23;10;8;
46240;PMS5003;31961;52.416;-0.732;2022-10-23T16:55:50;8;8;
46240;PMS5003;31961;52.416;-0.732;2022-10-23T16:58:18;11;10;
46240;PMS5003;31961;52.416;-0.732;2022-10-23T17:00:53;7;7;
46240;PMS5003;31961;52.416;-0.732;2022-10-23T17:03:21;12;11;
46240;PMS5003;31961;52.416;-0.732;2022-10-23T17:05:48;18;16;
46240;PMS5003;31961;52.416;-0.732;2022-10-23T17:08:15;13;11;
46240;PMS5003;31961;52.416;-0.732;2022-10-23T17:10:42;12;12;
46240;PMS5003;31961;52.416;-0.732;2022-10-23T17:13:10;17;16;
46240;PMS5003;31961;52.416;-0.732;2022-10-23T17:15:37;14;10;
46240;PMS5003;31961;52.416;-0.732;2022-10-23T17:18:04;14;12;